sensor_id;sensor_type;location;lat;lon;timestamp;P1;durP1;ratioP1;P2;durP2;ratioP2
20000;SDS011;10161;41.188;-8.642;2022-11-09T00:01:27;13.00;;;3.00;;
20000;SDS011;10161;41.188;-8.642;2022-11-09T00:03:55;7.23;;;2.73;;
20000;SDS011;10161;41.188;-8.642;2022-11-09T00:09:23;10.67;;;2.73;;
20000;SDS011;10161;41.188;-8.642;2022-11-09T00:11:52;11.30;;;3.37;;
20000;SDS011;10161;41.188;-8.642;2022-11-09T00:14:19;16.13;;;3.13;;
20000;SDS011;10161;41.188;-8.642;2022-11-09T00:16:46;11.07;;;3.00;;
20000;SDS011;10161;41.188;-8.642;2022-11-09T00:19:12;11.50;;;3.20;;
20000;SDS011;10161;41.188;-8.642;2022-11-09T00:21:39;13.83;;;2.87;;
20000;SDS011;10161;41.188;-8.642;2022-11-09T00:24:07;11.70;;;3.80;;
20000;SDS011;10161;41.188;-8.642;2022-11-09T00:26:34;15.40;;;3.30;;
20000;SDS011;10161;41.188;-8.642;2022-11-09T00:29:02;17.17;;;3.53;;
20000;SDS011;10161;41.188;-8.642;2022-11-09T00:31:29;13.93;;;3.17;;
20000;SDS011;10161;41.188;-8.642;2022-11-09T00:33:56;12.63;;;4.37;;
20000;SDS011;10161;41.188;-8.642;2022-11-09T00:36:24;16.20;;;4.87;;
20000;SDS011;10161;41.188;-8.642;2022-11-09T00:38:52;14.00;;;4.47;;
20000;SDS011;10161;41.188;-8.642;2022-11-09T00:41:22;17.57;;;4.60;;
20000;SDS011;10161;41.188;-8.642;2022-11-09T00:44:09;20.63;;;4.87;;
20000;SDS011;10161;41.188;-8.642;2022-11-09T00:46:36;14.77;;;4.97;;
20000;SDS011;10161;41.188;-8.642;2022-11-09T00:49:03;15.33;;;4.13;;
20000;SDS011;10161;41.188;-8.642;2022-11-09T00:51:30;13.40;;;4.00;;
20000;SDS011;10161;41.188;-8.642;2022-11-09T00:53:57;14.53;;;4.40;;
20000;SDS011;10161;41.188;-8.642;2022-11-09T00:56:24;18.93;;;4.03;;
20000;SDS011;10161;41.188;-8.642;2022-11-09T00:58:51;17.13;;;4.73;;
20000;SDS011;10161;41.188;-8.642;2022-11-09T01:01:21;19.10;;;4.70;;
20000;SDS011;10161;41.188;-8.642;2022-11-09T01:03:48;14.20;;;4.03;;
20000;SDS011;10161;41.188;-8.642;2022-11-09T01:08:47;24.57;;;4.80;;
20000;SDS011;10161;41.188;-8.642;2022-11-09T01:11:15;15.60;;;3.97;;
20000;SDS011;10161;41.188;-8.642;2022-11-09T01:13:43;15.40;;;4.40;;
20000;SDS011;10161;41.188;-8.642;2022-11-09T01:16:11;19.20;;;4.80;;
20000;SDS011;10161;41.188;-8.642;2022-11-09T01:18:40;16.77;;;4.47;;
20000;SDS011;10161;41.188;-8.642;2022-11-09T01:21:08;16.63;;;4.00;;
20000;SDS011;10161;41.188;-8.642;2022-11-09T01:23:36;17.97;;;4.10;;
20000;SDS011;10161;41.188;-8.642;2022-11-09T01:26:05;19.30;;;4.10;;
20000;SDS011;10161;41.188;-8.642;2022-11-09T01:28:33;12.57;;;3.60;;
20000;SDS011;10161;41.188;-8.642;2022-11-09T01:31:00;15.93;;;3.50;;
20000;SDS011;10161;41.188;-8.642;2022-11-09T01:33:27;17.97;;;4.10;;
20000;SDS011;10161;41.188;-8.642;2022-11-09T01:35:56;18.80;;;4.03;;
20000;SDS011;10161;41.188;-8.642;2022-11-09T01:38:27;10.87;;;3.97;;
20000;SDS011;10161;41.188;-8.642;2022-11-09T01:40:54;18.37;;;3.70;;
20000;SDS011;10161;41.188;-8.642;2022-11-09T01:43:22;14.67;;;3.40;;
20000;SDS011;10161;41.188;-8.642;2022-11-09T01:45:50;9.70;;;2.60;;
20000;SDS011;10161;41.188;-8.642;2022-11-09T01:48:20;14.13;;;3.27;;
20000;SDS011;10161;41.188;-8.642;2022-11-09T01:50:50;8.27;;;2.77;;
20000;SDS011;10161;41.188;-8.642;2022-11-09T01:53:21;8.90;;;3.10;;
20000;SDS011;10161;41.188;-8.642;2022-11-09T01:55:51;5.87;;;2.00;;
20000;SDS011;10161;41.188;-8.642;2022-11-09T01:58:29;10.80;;;2.60;;
20000;SDS011;10161;41.188;-8.642;2022-11-09T02:00:59;9.57;;;2.40;;
20000;SDS011;10161;41.188;-8.642;2022-11-09T02:03:27;5.93;;;2.20;;
20000;SDS011;10161;41.188;-8.642;2022-11-09T02:05:57;10.80;;;2.40;;
20000;SDS011;10161;41.188;-8.642;2022-11-09T02:08:26;11.90;;;2.87;;
20000;SDS011;10161;41.188;-8.642;2022-11-09T02:10:55;9.10;;;2.27;;
20000;SDS011;10161;41.188;-8.642;2022-11-09T02:17:00;11.20;;;2.40;;
20000;SDS011;10161;41.188;-8.642;2022-11-09T02:19:28;14.90;;;3.00;;
20000;SDS011;10161;41.188;-8.642;2022-11-09T02:21:56;11.13;;;2.77;;
20000;SDS011;10161;41.188;-8.642;2022-11-09T02:27:44;8.10;;;2.60;;
20000;SDS011;10161;41.188;-8.642;2022-11-09T02:30:12;9.40;;;2.77;;
20000;SDS011;10161;41.188;-8.642;2022-11-09T02:32:39;13.97;;;3.43;;
20000;SDS011;10161;41.188;-8.642;2022-11-09T02:35:07;13.50;;;2.40;;
20000;SDS011;10161;41.188;-8.642;2022-11-09T02:37:38;8.97;;;2.43;;
20000;SDS011;10161;41.188;-8.642;2022-11-09T02:40:06;11.70;;;2.93;;
20000;SDS011;10161;41.188;-8.642;2022-11-09T02:42:36;11.00;;;2.57;;
20000;SDS011;10161;41.188;-8.642;2022-11-09T02:45:04;12.93;;;3.13;;
20000;SDS011;10161;41.188;-8.642;2022-11-09T02:47:31;12.67;;;3.03;;
20000;SDS011;10161;41.188;-8.642;2022-11-09T02:49:58;11.93;;;3.03;;
20000;SDS011;10161;41.188;-8.642;2022-11-09T02:52:31;17.40;;;3.23;;
20000;SDS011;10161;41.188;-8.642;2022-11-09T02:54:59;6.67;;;2.77;;
20000;SDS011;10161;41.188;-8.642;2022-11-09T02:57:26;8.77;;;2.60;;
20000;SDS011;10161;41.188;-8.642;2022-11-09T03:03:15;6.07;;;2.03;;
20000;SDS011;10161;41.188;-8.642;2022-11-09T03:05:42;8.40;;;2.30;;
20000;SDS011;10161;41.188;-8.642;2022-11-09T03:08:09;8.63;;;2.80;;
20000;SDS011;10161;41.188;-8.642;2022-11-09T03:10:37;9.37;;;2.97;;
20000;SDS011;10161;41.188;-8.642;2022-11-09T03:13:04;11.20;;;2.40;;
20000;SDS011;10161;41.188;-8.642;2022-11-09T03:15:31;7.50;;;2.70;;
20000;SDS011;10161;41.188;-8.642;2022-11-09T03:17:59;9.30;;;2.80;;
20000;SDS011;10161;41.188;-8.642;2022-11-09T03:20:26;8.40;;;2.60;;
20000;SDS011;10161;41.188;-8.642;2022-11-09T03:22:55;11.30;;;2.47;;
20000;SDS011;10161;41.188;-8.642;2022-11-09T03:25:23;5.90;;;2.30;;
20000;SDS011;10161;41.188;-8.642;2022-11-09T03:27:51;4.20;;;1.57;;
20000;SDS011;10161;41.188;-8.642;2022-11-09T03:30:22;7.20;;;1.70;;
20000;SDS011;10161;41.188;-8.642;2022-11-09T03:32:49;3.83;;;1.90;;
20000;SDS011;10161;41.188;-8.642;2022-11-09T03:35:16;4.83;;;1.70;;
20000;SDS011;10161;41.188;-8.642;2022-11-09T03:37:43;3.50;;;1.60;;
20000;SDS011;10161;41.188;-8.642;2022-11-09T03:40:10;3.77;;;1.70;;
20000;SDS011;10161;41.188;-8.642;2022-11-09T03:42:41;4.80;;;1.87;;
20000;SDS011;10161;41.188;-8.642;2022-11-09T03:45:11;12.40;;;3.80;;
20000;SDS011;10161;41.188;-8.642;2022-11-09T03:47:39;9.00;;;2.40;;
20000;SDS011;10161;41.188;-8.642;2022-11-09T03:50:06;9.83;;;2.40;;
20000;SDS011;10161;41.188;-8.642;2022-11-09T03:52:34;8.30;;;2.17;;
20000;SDS011;10161;41.188;-8.642;2022-11-09T03:55:01;8.60;;;2.57;;
20000;SDS011;10161;41.188;-8.642;2022-11-09T03:57:29;7.03;;;2.33;;
20000;SDS011;10161;41.188;-8.642;2022-11-09T03:59:55;15.00;;;3.77;;
20000;SDS011;10161;41.188;-8.642;2022-11-09T04:02:24;9.60;;;3.30;;
20000;SDS011;10161;41.188;-8.642;2022-11-09T04:04:51;8.93;;;3.00;;
20000;SDS011;10161;41.188;-8.642;2022-11-09T04:07:18;12.30;;;3.67;;
20000;SDS011;10161;41.188;-8.642;2022-11-09T04:09:45;12.37;;;4.23;;
20000;SDS011;10161;41.188;-8.642;2022-11-09T04:12:12;12.63;;;3.80;;
20000;SDS011;10161;41.188;-8.642;2022-11-09T04:14:38;8.97;;;3.53;;
20000;SDS011;10161;41.188;-8.642;2022-11-09T04:17:05;10.80;;;3.60;;
20000;SDS011;10161;41.188;-8.642;2022-11-09T04:19:34;5.27;;;2.60;;
20000;SDS011;10161;41.188;-8.642;2022-11-09T04:22:01;5.73;;;2.63;;
20000;SDS011;10161;41.188;-8.642;2022-11-09T04:24:28;6.40;;;2.40;;
20000;SDS011;10161;41.188;-8.642;2022-11-09T04:26:55;5.53;;;2.37;;
20000;SDS011;10161;41.188;-8.642;2022-11-09T04:29:22;7.60;;;2.00;;
20000;SDS011;10161;41.188;-8.642;2022-11-09T04:31:49;7.40;;;3.10;;
20000;SDS011;10161;41.188;-8.642;2022-11-09T04:34:16;3.27;;;1.97;;
20000;SDS011;10161;41.188;-8.642;2022-11-09T04:36:44;3.00;;;1.80;;
20000;SDS011;10161;41.188;-8.642;2022-11-09T04:39:11;5.27;;;2.27;;
20000;SDS011;10161;41.188;-8.642;2022-11-09T04:41:38;6.47;;;2.30;;
20000;SDS011;10161;41.188;-8.642;2022-11-09T04:44:05;5.17;;;2.00;;
20000;SDS011;10161;41.188;-8.642;2022-11-09T04:46:32;4.33;;;2.40;;
20000;SDS011;10161;41.188;-8.642;2022-11-09T04:48:59;4.53;;;1.83;;
20000;SDS011;10161;41.188;-8.642;2022-11-09T04:51:26;5.43;;;2.17;;
20000;SDS011;10161;41.188;-8.642;2022-11-09T04:53:54;3.73;;;2.37;;
20000;SDS011;10161;41.188;-8.642;2022-11-09T04:56:21;4.80;;;2.00;;
20000;SDS011;10161;41.188;-8.642;2022-11-09T04:58:48;6.30;;;2.90;;
20000;SDS011;10161;41.188;-8.642;2022-11-09T05:01:15;5.87;;;2.50;;
20000;SDS011;10161;41.188;-8.642;2022-11-09T05:03:42;3.83;;;2.63;;
20000;SDS011;10161;41.188;-8.642;2022-11-09T05:06:09;4.37;;;1.87;;
20000;SDS011;10161;41.188;-8.642;2022-11-09T05:08:54;5.10;;;2.13;;
20000;SDS011;10161;41.188;-8.642;2022-11-09T05:11:21;6.27;;;2.23;;
20000;SDS011;10161;41.188;-8.642;2022-11-09T05:13:49;3.87;;;2.07;;
20000;SDS011;10161;41.188;-8.642;2022-11-09T05:16:16;5.10;;;2.50;;
20000;SDS011;10161;41.188;-8.642;2022-11-09T05:18:43;5.83;;;2.50;;
20000;SDS011;10161;41.188;-8.642;2022-11-09T05:23:42;4.23;;;1.87;;
20000;SDS011;10161;41.188;-8.642;2022-11-09T05:26:24;3.87;;;1.80;;
20000;SDS011;10161;41.188;-8.642;2022-11-09T05:35:16;5.40;;;2.30;;
20000;SDS011;10161;41.188;-8.642;2022-11-09T05:37:45;5.90;;;2.50;;
20000;SDS011;10161;41.188;-8.642;2022-11-09T05:40:19;3.10;;;1.93;;
20000;SDS011;10161;41.188;-8.642;2022-11-09T05:42:48;4.40;;;2.00;;
20000;SDS011;10161;41.188;-8.642;2022-11-09T05:45:16;7.10;;;2.20;;
20000;SDS011;10161;41.188;-8.642;2022-11-09T05:47:48;4.00;;;2.00;;
20000;SDS011;10161;41.188;-8.642;2022-11-09T05:50:15;5.07;;;2.40;;
20000;SDS011;10161;41.188;-8.642;2022-11-09T05:52:42;5.50;;;2.10;;
20000;SDS011;10161;41.188;-8.642;2022-11-09T05:55:09;5.77;;;2.23;;
20000;SDS011;10161;41.188;-8.642;2022-11-09T05:57:35;7.30;;;2.57;;
20000;SDS011;10161;41.188;-8.642;2022-11-09T06:00:05;4.80;;;2.33;;
20000;SDS011;10161;41.188;-8.642;2022-11-09T06:02:32;5.80;;;2.47;;
20000;SDS011;10161;41.188;-8.642;2022-11-09T06:05:00;4.77;;;2.10;;
20000;SDS011;10161;41.188;-8.642;2022-11-09T06:07:27;5.30;;;2.43;;
20000;SDS011;10161;41.188;-8.642;2022-11-09T06:09:54;5.40;;;2.20;;
20000;SDS011;10161;41.188;-8.642;2022-11-09T06:12:39;3.53;;;1.80;;
20000;SDS011;10161;41.188;-8.642;2022-11-09T06:15:08;4.63;;;2.17;;
20000;SDS011;10161;41.188;-8.642;2022-11-09T06:17:35;3.50;;;2.20;;
20000;SDS011;10161;41.188;-8.642;2022-11-09T06:20:02;7.87;;;2.47;;
20000;SDS011;10161;41.188;-8.642;2022-11-09T06:22:29;3.60;;;1.97;;
20000;SDS011;10161;41.188;-8.642;2022-11-09T06:24:56;6.03;;;2.47;;
20000;SDS011;10161;41.188;-8.642;2022-11-09T06:27:23;5.30;;;2.53;;
20000;SDS011;10161;41.188;-8.642;2022-11-09T06:29:50;7.20;;;2.80;;
20000;SDS011;10161;41.188;-8.642;2022-11-09T06:32:18;5.10;;;2.30;;
20000;SDS011;10161;41.188;-8.642;2022-11-09T06:37:33;6.10;;;3.10;;
20000;SDS011;10161;41.188;-8.642;2022-11-09T06:40:00;3.80;;;2.27;;
20000;SDS011;10161;41.188;-8.642;2022-11-09T06:42:44;5.40;;;2.70;;
20000;SDS011;10161;41.188;-8.642;2022-11-09T06:45:11;5.73;;;2.93;;
20000;SDS011;10161;41.188;-8.642;2022-11-09T06:47:39;7.63;;;3.20;;
20000;SDS011;10161;41.188;-8.642;2022-11-09T06:50:06;7.07;;;3.50;;
20000;SDS011;10161;41.188;-8.642;2022-11-09T06:55:16;8.80;;;3.00;;
20000;SDS011;10161;41.188;-8.642;2022-11-09T06:57:43;6.07;;;3.27;;
20000;SDS011;10161;41.188;-8.642;2022-11-09T07:00:10;6.33;;;2.90;;
20000;SDS011;10161;41.188;-8.642;2022-11-09T07:02:40;7.53;;;3.07;;
20000;SDS011;10161;41.188;-8.642;2022-11-09T07:05:07;9.77;;;3.10;;
20000;SDS011;10161;41.188;-8.642;2022-11-09T07:07:34;7.77;;;3.00;;
20000;SDS011;10161;41.188;-8.642;2022-11-09T07:10:02;4.63;;;2.70;;
20000;SDS011;10161;41.188;-8.642;2022-11-09T07:12:29;5.93;;;3.47;;
20000;SDS011;10161;41.188;-8.642;2022-11-09T07:14:57;4.53;;;3.10;;
20000;SDS011;10161;41.188;-8.642;2022-11-09T07:17:24;5.80;;;3.53;;
20000;SDS011;10161;41.188;-8.642;2022-11-09T07:19:52;4.23;;;3.50;;
20000;SDS011;10161;41.188;-8.642;2022-11-09T07:22:19;7.47;;;3.47;;
20000;SDS011;10161;41.188;-8.642;2022-11-09T07:24:46;7.07;;;3.50;;
20000;SDS011;10161;41.188;-8.642;2022-11-09T07:27:13;5.27;;;4.03;;
20000;SDS011;10161;41.188;-8.642;2022-11-09T07:29:40;5.10;;;4.00;;
20000;SDS011;10161;41.188;-8.642;2022-11-09T07:32:07;5.57;;;3.57;;
20000;SDS011;10161;41.188;-8.642;2022-11-09T07:34:34;11.13;;;4.80;;
20000;SDS011;10161;41.188;-8.642;2022-11-09T07:37:02;10.63;;;5.10;;
20000;SDS011;10161;41.188;-8.642;2022-11-09T07:39:29;9.40;;;5.30;;
20000;SDS011;10161;41.188;-8.642;2022-11-09T07:41:56;7.43;;;5.10;;
20000;SDS011;10161;41.188;-8.642;2022-11-09T07:44:23;8.27;;;4.60;;
20000;SDS011;10161;41.188;-8.642;2022-11-09T07:46:50;9.60;;;5.63;;
20000;SDS011;10161;41.188;-8.642;2022-11-09T07:49:16;10.17;;;6.30;;
20000;SDS011;10161;41.188;-8.642;2022-11-09T07:51:43;9.47;;;5.93;;
20000;SDS011;10161;41.188;-8.642;2022-11-09T07:54:12;14.83;;;6.40;;
20000;SDS011;10161;41.188;-8.642;2022-11-09T07:56:39;23.53;;;6.43;;
20000;SDS011;10161;41.188;-8.642;2022-11-09T07:59:05;6.80;;;5.10;;
20000;SDS011;10161;41.188;-8.642;2022-11-09T08:01:32;13.97;;;6.17;;
20000;SDS011;10161;41.188;-8.642;2022-11-09T08:03:59;7.83;;;5.17;;
20000;SDS011;10161;41.188;-8.642;2022-11-09T08:06:26;7.73;;;4.93;;
20000;SDS011;10161;41.188;-8.642;2022-11-09T08:08:53;7.97;;;5.20;;
20000;SDS011;10161;41.188;-8.642;2022-11-09T08:11:22;8.83;;;4.97;;
20000;SDS011;10161;41.188;-8.642;2022-11-09T08:16:43;9.00;;;5.23;;
20000;SDS011;10161;41.188;-8.642;2022-11-09T08:19:10;10.07;;;4.77;;
20000;SDS011;10161;41.188;-8.642;2022-11-09T08:21:37;7.60;;;4.73;;
20000;SDS011;10161;41.188;-8.642;2022-11-09T08:24:04;8.20;;;4.30;;
20000;SDS011;10161;41.188;-8.642;2022-11-09T08:26:33;6.60;;;4.43;;
20000;SDS011;10161;41.188;-8.642;2022-11-09T08:28:59;8.43;;;4.37;;
20000;SDS011;10161;41.188;-8.642;2022-11-09T08:31:26;7.70;;;4.20;;
20000;SDS011;10161;41.188;-8.642;2022-11-09T08:33:55;5.83;;;3.87;;
20000;SDS011;10161;41.188;-8.642;2022-11-09T08:36:21;5.40;;;3.57;;
20000;SDS011;10161;41.188;-8.642;2022-11-09T08:38:50;6.67;;;3.83;;
20000;SDS011;10161;41.188;-8.642;2022-11-09T08:41:17;5.77;;;3.40;;
20000;SDS011;10161;41.188;-8.642;2022-11-09T08:43:45;6.13;;;3.60;;
20000;SDS011;10161;41.188;-8.642;2022-11-09T08:46:12;8.20;;;4.33;;
20000;SDS011;10161;41.188;-8.642;2022-11-09T08:48:39;7.20;;;4.20;;
20000;SDS011;10161;41.188;-8.642;2022-11-09T08:51:06;6.27;;;4.00;;
20000;SDS011;10161;41.188;-8.642;2022-11-09T08:53:33;8.77;;;3.77;;
20000;SDS011;10161;41.188;-8.642;2022-11-09T08:55:59;7.67;;;3.97;;
20000;SDS011;10161;41.188;-8.642;2022-11-09T08:58:26;6.87;;;4.10;;
20000;SDS011;10161;41.188;-8.642;2022-11-09T09:00:55;6.07;;;4.20;;
20000;SDS011;10161;41.188;-8.642;2022-11-09T09:03:22;11.70;;;5.57;;
20000;SDS011;10161;41.188;-8.642;2022-11-09T09:05:48;7.27;;;3.93;;
20000;SDS011;10161;41.188;-8.642;2022-11-09T09:08:15;10.57;;;4.37;;
20000;SDS011;10161;41.188;-8.642;2022-11-09T09:10:46;10.70;;;4.67;;
20000;SDS011;10161;41.188;-8.642;2022-11-09T09:13:13;7.23;;;4.20;;
20000;SDS011;10161;41.188;-8.642;2022-11-09T09:15:41;12.97;;;4.57;;
20000;SDS011;10161;41.188;-8.642;2022-11-09T09:18:09;5.73;;;3.73;;
20000;SDS011;10161;41.188;-8.642;2022-11-09T09:20:36;7.70;;;3.90;;
20000;SDS011;10161;41.188;-8.642;2022-11-09T09:23:04;11.53;;;4.73;;
20000;SDS011;10161;41.188;-8.642;2022-11-09T09:25:31;6.10;;;4.10;;
20000;SDS011;10161;41.188;-8.642;2022-11-09T09:27:58;6.20;;;3.77;;
20000;SDS011;10161;41.188;-8.642;2022-11-09T09:30:25;9.47;;;4.80;;
20000;SDS011;10161;41.188;-8.642;2022-11-09T09:32:51;8.20;;;4.47;;
20000;SDS011;10161;41.188;-8.642;2022-11-09T09:35:24;7.67;;;4.50;;
20000;SDS011;10161;41.188;-8.642;2022-11-09T09:37:52;10.23;;;5.10;;
20000;SDS011;10161;41.188;-8.642;2022-11-09T09:42:48;10.80;;;4.83;;
20000;SDS011;10161;41.188;-8.642;2022-11-09T09:45:17;6.63;;;4.30;;
20000;SDS011;10161;41.188;-8.642;2022-11-09T09:47:45;6.77;;;4.67;;
20000;SDS011;10161;41.188;-8.642;2022-11-09T09:50:16;13.63;;;5.37;;
20000;SDS011;10161;41.188;-8.642;2022-11-09T09:52:48;12.20;;;5.40;;
20000;SDS011;10161;41.188;-8.642;2022-11-09T09:55:20;12.13;;;5.20;;
20000;SDS011;10161;41.188;-8.642;2022-11-09T09:57:52;10.10;;;5.93;;
20000;SDS011;10161;41.188;-8.642;2022-11-09T10:00:21;12.77;;;5.60;;
20000;SDS011;10161;41.188;-8.642;2022-11-09T10:02:49;10.70;;;5.67;;
20000;SDS011;10161;41.188;-8.642;2022-11-09T10:05:17;9.63;;;5.83;;
20000;SDS011;10161;41.188;-8.642;2022-11-09T10:07:50;11.83;;;6.30;;
20000;SDS011;10161;41.188;-8.642;2022-11-09T10:10:23;13.63;;;5.50;;
20000;SDS011;10161;41.188;-8.642;2022-11-09T10:13:04;8.33;;;4.80;;
20000;SDS011;10161;41.188;-8.642;2022-11-09T10:15:41;12.57;;;6.80;;
20000;SDS011;10161;41.188;-8.642;2022-11-09T10:18:20;10.13;;;5.80;;
20000;SDS011;10161;41.188;-8.642;2022-11-09T10:20:59;11.23;;;5.70;;
20000;SDS011;10161;41.188;-8.642;2022-11-09T10:23:44;7.20;;;4.87;;
20000;SDS011;10161;41.188;-8.642;2022-11-09T10:26:19;10.47;;;4.40;;
20000;SDS011;10161;41.188;-8.642;2022-11-09T10:28:49;12.63;;;5.10;;
20000;SDS011;10161;41.188;-8.642;2022-11-09T10:31:20;16.03;;;6.10;;
20000;SDS011;10161;41.188;-8.642;2022-11-09T10:33:48;8.80;;;5.50;;
20000;SDS011;10161;41.188;-8.642;2022-11-09T10:36:19;14.00;;;6.30;;
20000;SDS011;10161;41.188;-8.642;2022-11-09T10:38:51;22.00;;;6.53;;
20000;SDS011;10161;41.188;-8.642;2022-11-09T10:41:23;25.03;;;8.70;;
20000;SDS011;10161;41.188;-8.642;2022-11-09T10:43:53;26.67;;;8.13;;
20000;SDS011;10161;41.188;-8.642;2022-11-09T10:46:20;21.17;;;7.03;;
20000;SDS011;10161;41.188;-8.642;2022-11-09T10:48:47;21.27;;;7.20;;
20000;SDS011;10161;41.188;-8.642;2022-11-09T10:51:31;32.63;;;9.17;;
20000;SDS011;10161;41.188;-8.642;2022-11-09T10:54:17;22.10;;;7.60;;
20000;SDS011;10161;41.188;-8.642;2022-11-09T10:56:47;29.10;;;9.20;;
20000;SDS011;10161;41.188;-8.642;2022-11-09T10:59:34;28.27;;;9.17;;
20000;SDS011;10161;41.188;-8.642;2022-11-09T11:02:15;29.73;;;9.43;;
20000;SDS011;10161;41.188;-8.642;2022-11-09T11:05:22;30.83;;;9.17;;
20000;SDS011;10161;41.188;-8.642;2022-11-09T11:08:19;29.67;;;8.57;;
20000;SDS011;10161;41.188;-8.642;2022-11-09T11:10:50;29.53;;;8.07;;
20000;SDS011;10161;41.188;-8.642;2022-11-09T11:13:21;22.50;;;8.00;;
20000;SDS011;10161;41.188;-8.642;2022-11-09T11:15:49;26.47;;;8.90;;
20000;SDS011;10161;41.188;-8.642;2022-11-09T11:18:17;29.90;;;8.23;;
20000;SDS011;10161;41.188;-8.642;2022-11-09T11:20:47;29.00;;;7.97;;
20000;SDS011;10161;41.188;-8.642;2022-11-09T11:23:15;23.80;;;6.43;;
20000;SDS011;10161;41.188;-8.642;2022-11-09T11:25:55;23.87;;;6.30;;
20000;SDS011;10161;41.188;-8.642;2022-11-09T11:28:30;27.33;;;6.63;;
20000;SDS011;10161;41.188;-8.642;2022-11-09T11:31:01;21.30;;;6.40;;
20000;SDS011;10161;41.188;-8.642;2022-11-09T11:33:28;20.70;;;6.17;;
20000;SDS011;10161;41.188;-8.642;2022-11-09T11:35:57;23.40;;;6.13;;
20000;SDS011;10161;41.188;-8.642;2022-11-09T11:38:31;21.37;;;5.30;;
20000;SDS011;10161;41.188;-8.642;2022-11-09T11:41:05;24.10;;;6.40;;
20000;SDS011;10161;41.188;-8.642;2022-11-09T11:43:44;20.17;;;5.40;;
20000;SDS011;10161;41.188;-8.642;2022-11-09T11:46:16;20.80;;;6.90;;
20000;SDS011;10161;41.188;-8.642;2022-11-09T11:48:56;18.10;;;6.17;;
20000;SDS011;10161;41.188;-8.642;2022-11-09T11:51:42;23.03;;;5.67;;
20000;SDS011;10161;41.188;-8.642;2022-11-09T11:54:15;20.80;;;5.90;;
20000;SDS011;10161;41.188;-8.642;2022-11-09T11:56:49;27.63;;;7.20;;
20000;SDS011;10161;41.188;-8.642;2022-11-09T11:59:32;15.57;;;6.00;;
20000;SDS011;10161;41.188;-8.642;2022-11-09T12:05:29;14.03;;;5.23;;
20000;SDS011;10161;41.188;-8.642;2022-11-09T12:08:09;17.13;;;5.77;;
20000;SDS011;10161;41.188;-8.642;2022-11-09T12:10:43;20.70;;;5.97;;
20000;SDS011;10161;41.188;-8.642;2022-11-09T12:13:19;20.10;;;5.40;;
20000;SDS011;10161;41.188;-8.642;2022-11-09T12:16:01;24.23;;;6.33;;
20000;SDS011;10161;41.188;-8.642;2022-11-09T12:18:38;24.40;;;6.30;;
20000;SDS011;10161;41.188;-8.642;2022-11-09T12:21:14;18.20;;;5.53;;
20000;SDS011;10161;41.188;-8.642;2022-11-09T12:23:46;22.07;;;5.97;;
20000;SDS011;10161;41.188;-8.642;2022-11-09T12:26:22;24.27;;;6.13;;
20000;SDS011;10161;41.188;-8.642;2022-11-09T12:28:56;21.70;;;5.50;;
20000;SDS011;10161;41.188;-8.642;2022-11-09T12:31:32;26.50;;;6.30;;
20000;SDS011;10161;41.188;-8.642;2022-11-09T12:34:05;23.10;;;6.50;;
20000;SDS011;10161;41.188;-8.642;2022-11-09T12:36:39;23.40;;;6.50;;
20000;SDS011;10161;41.188;-8.642;2022-11-09T12:39:11;31.27;;;6.73;;
20000;SDS011;10161;41.188;-8.642;2022-11-09T12:41:41;22.37;;;6.33;;
20000;SDS011;10161;41.188;-8.642;2022-11-09T12:44:10;21.93;;;6.33;;
20000;SDS011;10161;41.188;-8.642;2022-11-09T12:46:41;19.57;;;6.60;;
20000;SDS011;10161;41.188;-8.642;2022-11-09T12:49:14;20.03;;;6.30;;
20000;SDS011;10161;41.188;-8.642;2022-11-09T12:51:49;21.73;;;6.70;;
20000;SDS011;10161;41.188;-8.642;2022-11-09T12:54:16;20.10;;;5.90;;
20000;SDS011;10161;41.188;-8.642;2022-11-09T12:56:46;19.27;;;6.07;;
20000;SDS011;10161;41.188;-8.642;2022-11-09T12:59:21;22.87;;;6.43;;
20000;SDS011;10161;41.188;-8.642;2022-11-09T13:02:00;26.63;;;7.47;;
20000;SDS011;10161;41.188;-8.642;2022-11-09T13:04:28;21.20;;;6.93;;
20000;SDS011;10161;41.188;-8.642;2022-11-09T13:09:52;15.50;;;5.97;;
20000;SDS011;10161;41.188;-8.642;2022-11-09T13:15:21;24.70;;;7.00;;
20000;SDS011;10161;41.188;-8.642;2022-11-09T13:17:52;23.50;;;7.10;;
20000;SDS011;10161;41.188;-8.642;2022-11-09T13:25:51;23.00;;;7.37;;
20000;SDS011;10161;41.188;-8.642;2022-11-09T13:28:39;29.57;;;6.97;;
20000;SDS011;10161;41.188;-8.642;2022-11-09T13:31:09;25.33;;;6.77;;
20000;SDS011;10161;41.188;-8.642;2022-11-09T13:33:36;19.83;;;6.20;;
20000;SDS011;10161;41.188;-8.642;2022-11-09T13:38:46;20.37;;;6.30;;
20000;SDS011;10161;41.188;-8.642;2022-11-09T13:41:51;18.10;;;6.27;;
20000;SDS011;10161;41.188;-8.642;2022-11-09T13:44:23;24.93;;;5.63;;
20000;SDS011;10161;41.188;-8.642;2022-11-09T13:46:52;16.77;;;4.47;;
20000;SDS011;10161;41.188;-8.642;2022-11-09T13:49:33;31.80;;;7.67;;
20000;SDS011;10161;41.188;-8.642;2022-11-09T13:52:04;26.20;;;6.93;;
20000;SDS011;10161;41.188;-8.642;2022-11-09T13:54:32;23.87;;;6.53;;
20000;SDS011;10161;41.188;-8.642;2022-11-09T13:56:59;30.30;;;6.73;;
20000;SDS011;10161;41.188;-8.642;2022-11-09T13:59:30;29.80;;;7.10;;
20000;SDS011;10161;41.188;-8.642;2022-11-09T14:02:01;23.50;;;6.93;;
20000;SDS011;10161;41.188;-8.642;2022-11-09T14:04:28;24.17;;;6.17;;
20000;SDS011;10161;41.188;-8.642;2022-11-09T14:06:59;22.57;;;6.80;;
20000;SDS011;10161;41.188;-8.642;2022-11-09T14:09:27;24.27;;;7.43;;
20000;SDS011;10161;41.188;-8.642;2022-11-09T14:12:02;26.60;;;8.30;;
20000;SDS011;10161;41.188;-8.642;2022-11-09T14:14:54;24.17;;;7.07;;
20000;SDS011;10161;41.188;-8.642;2022-11-09T14:17:42;24.80;;;8.13;;
20000;SDS011;10161;41.188;-8.642;2022-11-09T14:20:28;19.87;;;5.77;;
20000;SDS011;10161;41.188;-8.642;2022-11-09T14:22:58;26.37;;;5.87;;
20000;SDS011;10161;41.188;-8.642;2022-11-09T14:25:25;20.90;;;7.23;;
20000;SDS011;10161;41.188;-8.642;2022-11-09T14:28:00;21.90;;;5.83;;
20000;SDS011;10161;41.188;-8.642;2022-11-09T14:30:28;21.77;;;7.83;;
20000;SDS011;10161;41.188;-8.642;2022-11-09T14:32:57;16.17;;;4.27;;
20000;SDS011;10161;41.188;-8.642;2022-11-09T14:35:25;17.27;;;5.77;;
20000;SDS011;10161;41.188;-8.642;2022-11-09T14:37:54;22.40;;;5.60;;
20000;SDS011;10161;41.188;-8.642;2022-11-09T14:40:23;21.43;;;6.10;;
20000;SDS011;10161;41.188;-8.642;2022-11-09T14:42:53;22.23;;;5.60;;
20000;SDS011;10161;41.188;-8.642;2022-11-09T14:45:20;23.03;;;6.47;;
20000;SDS011;10161;41.188;-8.642;2022-11-09T14:47:48;11.20;;;3.77;;
20000;SDS011;10161;41.188;-8.642;2022-11-09T14:50:20;21.20;;;4.57;;
20000;SDS011;10161;41.188;-8.642;2022-11-09T14:52:48;17.93;;;4.90;;
20000;SDS011;10161;41.188;-8.642;2022-11-09T14:55:17;17.03;;;4.40;;
20000;SDS011;10161;41.188;-8.642;2022-11-09T14:57:45;25.80;;;6.50;;
20000;SDS011;10161;41.188;-8.642;2022-11-09T15:00:23;21.60;;;5.80;;
20000;SDS011;10161;41.188;-8.642;2022-11-09T15:02:53;18.50;;;4.90;;
20000;SDS011;10161;41.188;-8.642;2022-11-09T15:05:32;12.00;;;4.03;;
20000;SDS011;10161;41.188;-8.642;2022-11-09T15:08:03;14.83;;;4.93;;
20000;SDS011;10161;41.188;-8.642;2022-11-09T15:10:31;16.80;;;4.27;;
20000;SDS011;10161;41.188;-8.642;2022-11-09T15:12:59;17.60;;;5.20;;
20000;SDS011;10161;41.188;-8.642;2022-11-09T15:15:28;14.80;;;4.63;;
20000;SDS011;10161;41.188;-8.642;2022-11-09T15:17:55;10.77;;;3.80;;
20000;SDS011;10161;41.188;-8.642;2022-11-09T15:20:24;10.10;;;3.27;;
20000;SDS011;10161;41.188;-8.642;2022-11-09T15:22:55;13.37;;;3.60;;
20000;SDS011;10161;41.188;-8.642;2022-11-09T15:25:24;11.20;;;3.40;;
20000;SDS011;10161;41.188;-8.642;2022-11-09T15:28:01;14.10;;;3.77;;
20000;SDS011;10161;41.188;-8.642;2022-11-09T15:30:46;12.13;;;3.60;;
20000;SDS011;10161;41.188;-8.642;2022-11-09T15:33:17;13.77;;;3.47;;
20000;SDS011;10161;41.188;-8.642;2022-11-09T15:35:48;12.37;;;3.60;;